Home PIREPS Pireps

Flight BEL2184

  • Submitted By: AndrĂ© Vincent
  • Departure Airport: Manchester Airport (EGCC)
  • Arrival Airport: Bruxelles National (EBBR)
  • Aircraft: A319-112 (OO-SSG)
  • Flight Time: 01.18
  • Date Submitted: 28/11/2016
  • Status: Accepted
Flight Details
Gross Revenue:
(120 load / € 72.00 per unit
€ 8,640.00
Fuel Cost:
(5059 fuel used @ 5.1 / unit)
€ 25,800.90

Additional Log Information:

View Log

Aircraft Used in flight is Boeing 737-800 sabena paint
09:11 Brakes are On
09:13 Brakes are Released
09:20 You Took off @ 215 Knots and Flaps at Position 2
Departure Weather
EGCC 280750Z 04006KT 9999 BKN039 06/01 Q1031 NOSIGrn
09:20 You are Airborne and your Navigation Lights are off
09:20 Landing Gear Up @ 188 Knots and 820 Feet
09:20 You exceeded maximum bank angle
09:24 Below Fl100 you need to turn on the landing lights
09:24 Below FL100 you need to turn on the landing lights
10:07 Above FL100 you need to switch of the landing lights
10:07 Above FL100 you need to switch of the landing lights
10:23 Landing Gear Down @ 145 Knots and 1720 Feet
10:25 You Landed @ 122 Knots and with -350 Vertical Speed
Arrival Weather
EBBR 280850Z 05002KT CAVOK M00/M01 Q1029 NOSIGrn
10:29 Brakes are On
10:29 Brussels Bel-Track1.0.1.2

Route Map

Corporate About Us Our Team Vacancies Information Fleet Route Network Rules and Regulations Operations Flight Schedules Event Center Tours Partners IVAO Vatsim Acars dev FSCB

fb Users Online Belgium Jos Viville,
2 Pilot(s) and 165 Guest(s) Online
CMS by phpVMS - Design by Crazycreatives.com - Copyright © 2018 - Brussels Airlines Virtual